sensor_id;sensor_type;location;lat;lon;timestamp;pressure;altitude;pressure_sealevel;temperature;humidity
35419;BME280;21525;41.240;16.500;2024-02-15T00:02:04;102074.88;;;15.09;63.56
35419;BME280;21525;41.240;16.500;2024-02-15T00:04:30;102073.75;;;15.31;62.26
35419;BME280;21525;41.240;16.500;2024-02-15T00:06:57;102063.50;;;15.85;60.83
35419;BME280;21525;41.240;16.500;2024-02-15T00:09:23;102063.75;;;15.65;61.27
35419;BME280;21525;41.240;16.500;2024-02-15T00:11:48;102057.94;;;15.39;61.30
35419;BME280;21525;41.240;16.500;2024-02-15T00:14:14;102064.75;;;15.58;61.08
35419;BME280;21525;41.240;16.500;2024-02-15T00:16:40;102064.53;;;15.72;60.68
35419;BME280;21525;41.240;16.500;2024-02-15T00:19:06;102065.44;;;15.69;60.77
35419;BME280;21525;41.240;16.500;2024-02-15T00:21:32;102066.16;;;15.82;60.28
35419;BME280;21525;41.240;16.500;2024-02-15T00:23:58;102067.97;;;14.99;62.43
35419;BME280;21525;41.240;16.500;2024-02-15T00:26:25;102065.06;;;15.98;60.12
35419;BME280;21525;41.240;16.500;2024-02-15T00:28:51;102070.72;;;15.68;61.49
35419;BME280;21525;41.240;16.500;2024-02-15T00:31:17;102071.50;;;15.76;60.31
35419;BME280;21525;41.240;16.500;2024-02-15T00:33:44;102065.97;;;15.27;62.35
35419;BME280;21525;41.240;16.500;2024-02-15T00:36:10;102059.81;;;15.97;60.56
35419;BME280;21525;41.240;16.500;2024-02-15T00:38:37;102072.59;;;15.58;61.02
35419;BME280;21525;41.240;16.500;2024-02-15T00:41:04;102064.88;;;16.10;60.12
35419;BME280;21525;41.240;16.500;2024-02-15T00:43:34;102057.59;;;15.69;60.77
35419;BME280;21525;41.240;16.500;2024-02-15T00:46:01;102053.47;;;15.47;60.94
35419;BME280;21525;41.240;16.500;2024-02-15T00:48:26;102060.81;;;15.91;59.70
35419;BME280;21525;41.240;16.500;2024-02-15T00:50:54;102055.38;;;16.02;59.54
35419;BME280;21525;41.240;16.500;2024-02-15T00:53:20;102058.91;;;15.99;59.58
35419;BME280;21525;41.240;16.500;2024-02-15T00:55:46;102052.25;;;15.75;59.94
35419;BME280;21525;41.240;16.500;2024-02-15T00:58:11;102056.09;;;15.45;60.57
35419;BME280;21525;41.240;16.500;2024-02-15T01:00:37;102053.38;;;15.59;60.89
35419;BME280;21525;41.240;16.500;2024-02-15T01:03:04;102058.56;;;15.61;59.84
35419;BME280;21525;41.240;16.500;2024-02-15T01:05:29;102055.25;;;15.43;60.34
35419;BME280;21525;41.240;16.500;2024-02-15T01:07:56;102050.50;;;15.76;60.63
35419;BME280;21525;41.240;16.500;2024-02-15T01:10:22;102048.69;;;15.81;59.53
35419;BME280;21525;41.240;16.500;2024-02-15T01:12:50;102046.53;;;15.43;60.71
35419;BME280;21525;41.240;16.500;2024-02-15T01:15:15;102044.00;;;16.03;59.84
35419;BME280;21525;41.240;16.500;2024-02-15T01:17:44;102046.00;;;15.12;61.01
35419;BME280;21525;41.240;16.500;2024-02-15T01:20:10;102031.72;;;15.37;61.16
35419;BME280;21525;41.240;16.500;2024-02-15T01:22:36;102028.66;;;15.74;59.87
35419;BME280;21525;41.240;16.500;2024-02-15T01:25:02;102028.91;;;15.57;60.19
35419;BME280;21525;41.240;16.500;2024-02-15T01:27:28;102030.84;;;15.37;60.65
35419;BME280;21525;41.240;16.500;2024-02-15T01:29:57;102015.19;;;15.98;59.32
35419;BME280;21525;41.240;16.500;2024-02-15T01:32:23;102013.72;;;15.10;61.69
35419;BME280;21525;41.240;16.500;2024-02-15T01:34:49;102009.75;;;15.49;60.54
35419;BME280;21525;41.240;16.500;2024-02-15T01:37:16;102008.56;;;15.73;59.26
35419;BME280;21525;41.240;16.500;2024-02-15T01:39:42;101998.63;;;15.93;58.86
35419;BME280;21525;41.240;16.500;2024-02-15T01:42:08;102008.47;;;15.10;60.86
35419;BME280;21525;41.240;16.500;2024-02-15T01:44:34;102007.19;;;15.44;60.84
35419;BME280;21525;41.240;16.500;2024-02-15T01:47:02;102008.66;;;15.65;60.73
35419;BME280;21525;41.240;16.500;2024-02-15T01:49:30;102011.13;;;15.07;61.76
35419;BME280;21525;41.240;16.500;2024-02-15T01:51:56;102010.81;;;15.31;60.97
35419;BME280;21525;41.240;16.500;2024-02-15T01:54:24;102023.56;;;15.62;59.74
35419;BME280;21525;41.240;16.500;2024-02-15T01:56:50;102023.66;;;15.57;59.82
35419;BME280;21525;41.240;16.500;2024-02-15T01:59:16;102030.84;;;15.37;60.19
35419;BME280;21525;41.240;16.500;2024-02-15T02:01:42;102031.72;;;15.37;60.14
35419;BME280;21525;41.240;16.500;2024-02-15T02:04:12;102038.50;;;15.58;59.44
35419;BME280;21525;41.240;16.500;2024-02-15T02:06:38;102033.59;;;15.28;60.20
35419;BME280;21525;41.240;16.500;2024-02-15T02:09:04;102040.56;;;15.27;59.73
35419;BME280;21525;41.240;16.500;2024-02-15T02:11:30;102038.75;;;15.35;59.71
35419;BME280;21525;41.240;16.500;2024-02-15T02:13:56;102030.44;;;14.95;59.45
35419;BME280;21525;41.240;16.500;2024-02-15T02:16:28;102036.03;;;15.43;59.28
35419;BME280;21525;41.240;16.500;2024-02-15T02:18:55;102033.38;;;15.48;58.88
35419;BME280;21525;41.240;16.500;2024-02-15T02:21:23;102035.31;;;15.30;58.38
35419;BME280;21525;41.240;16.500;2024-02-15T02:23:54;102038.44;;;15.61;57.32
35419;BME280;21525;41.240;16.500;2024-02-15T02:26:22;102025.41;;;15.55;57.41
35419;BME280;21525;41.240;16.500;2024-02-15T02:28:48;102028.25;;;15.35;57.23
35419;BME280;21525;41.240;16.500;2024-02-15T02:31:14;102032.19;;;14.95;57.91
35419;BME280;21525;41.240;16.500;2024-02-15T02:33:41;102028.09;;;15.49;57.16
35419;BME280;21525;41.240;16.500;2024-02-15T02:36:07;102033.66;;;15.23;56.91
35419;BME280;21525;41.240;16.500;2024-02-15T02:38:35;102036.31;;;15.20;57.06
35419;BME280;21525;41.240;16.500;2024-02-15T02:41:04;102034.19;;;15.53;55.81
35419;BME280;21525;41.240;16.500;2024-02-15T02:43:30;102028.63;;;15.02;55.99
35419;BME280;21525;41.240;16.500;2024-02-15T02:45:55;102034.56;;;15.19;56.55
35419;BME280;21525;41.240;16.500;2024-02-15T02:48:21;102034.59;;;15.90;55.33
35419;BME280;21525;41.240;16.500;2024-02-15T02:50:50;102028.78;;;15.65;55.24
35419;BME280;21525;41.240;16.500;2024-02-15T02:53:16;102027.66;;;15.13;55.98
35419;BME280;21525;41.240;16.500;2024-02-15T02:55:41;102022.50;;;15.78;54.92
35419;BME280;21525;41.240;16.500;2024-02-15T02:58:08;102022.69;;;15.63;54.44
35419;BME280;21525;41.240;16.500;2024-02-15T03:00:34;102015.03;;;15.44;54.76
35419;BME280;21525;41.240;16.500;2024-02-15T03:03:00;102020.19;;;15.57;54.79
35419;BME280;21525;41.240;16.500;2024-02-15T03:05:26;102022.94;;;15.41;55.45
35419;BME280;21525;41.240;16.500;2024-02-15T03:07:52;102024.84;;;15.27;55.20
35419;BME280;21525;41.240;16.500;2024-02-15T03:10:18;102028.16;;;15.44;55.04
35419;BME280;21525;41.240;16.500;2024-02-15T03:12:44;102026.38;;;15.48;55.30
35419;BME280;21525;41.240;16.500;2024-02-15T03:15:13;102025.31;;;15.63;54.81
35419;BME280;21525;41.240;16.500;2024-02-15T03:17:43;102029.41;;;15.85;53.98
35419;BME280;21525;41.240;16.500;2024-02-15T03:20:10;102024.31;;;15.73;53.98
35419;BME280;21525;41.240;16.500;2024-02-15T03:22:55;102023.34;;;15.80;53.55
35419;BME280;21525;41.240;16.500;2024-02-15T03:25:21;102033.91;;;15.74;54.35
35419;BME280;21525;41.240;16.500;2024-02-15T03:27:52;102032.81;;;15.90;54.17
35419;BME280;21525;41.240;16.500;2024-02-15T03:30:19;102039.69;;;15.30;55.67
35419;BME280;21525;41.240;16.500;2024-02-15T03:32:46;102038.44;;;15.61;54.44
35419;BME280;21525;41.240;16.500;2024-02-15T03:35:15;102035.31;;;15.29;55.17
35419;BME280;21525;41.240;16.500;2024-02-15T03:37:41;102035.16;;;15.42;54.93
35419;BME280;21525;41.240;16.500;2024-02-15T03:40:08;102037.00;;;15.34;55.12
35419;BME280;21525;41.240;16.500;2024-02-15T03:42:34;102038.44;;;15.61;54.06
35419;BME280;21525;41.240;16.500;2024-02-15T03:45:06;102041.81;;;15.72;53.76
35419;BME280;21525;41.240;16.500;2024-02-15T03:47:32;102040.38;;;15.45;53.73
35419;BME280;21525;41.240;16.500;2024-02-15T03:50:05;102040.50;;;16.02;53.25
35419;BME280;21525;41.240;16.500;2024-02-15T03:52:31;102046.56;;;15.40;53.77
35419;BME280;21525;41.240;16.500;2024-02-15T03:54:58;102047.69;;;15.19;55.18
35419;BME280;21525;41.240;16.500;2024-02-15T03:57:28;102052.13;;;15.12;54.39
35419;BME280;21525;41.240;16.500;2024-02-15T03:59:54;102041.09;;;14.80;55.75
35419;BME280;21525;41.240;16.500;2024-02-15T04:02:23;102049.03;;;14.69;56.10
35419;BME280;21525;41.240;16.500;2024-02-15T04:04:53;102043.81;;;15.51;54.83
35419;BME280;21525;41.240;16.500;2024-02-15T04:07:21;102050.06;;;15.39;54.81
35419;BME280;21525;41.240;16.500;2024-02-15T04:09:48;102045.28;;;15.73;53.85
35419;BME280;21525;41.240;16.500;2024-02-15T04:12:14;102049.09;;;15.48;53.36
35419;BME280;21525;41.240;16.500;2024-02-15T04:14:40;102057.16;;;15.31;53.69
35419;BME280;21525;41.240;16.500;2024-02-15T04:17:07;102049.63;;;15.77;53.04
35419;BME280;21525;41.240;16.500;2024-02-15T04:19:33;102062.81;;;14.94;54.33
35419;BME280;21525;41.240;16.500;2024-02-15T04:21:59;102047.31;;;15.50;53.43
35419;BME280;21525;41.240;16.500;2024-02-15T04:24:26;102054.06;;;15.70;53.44
35419;BME280;21525;41.240;16.500;2024-02-15T04:26:52;102059.56;;;15.49;52.90
35419;BME280;21525;41.240;16.500;2024-02-15T04:29:18;102051.94;;;15.28;53.02
35419;BME280;21525;41.240;16.500;2024-02-15T04:31:46;102062.72;;;15.00;53.42
35419;BME280;21525;41.240;16.500;2024-02-15T04:34:15;102070.88;;;15.57;52.87
35419;BME280;21525;41.240;16.500;2024-02-15T04:36:46;102064.28;;;15.18;53.51
35419;BME280;21525;41.240;16.500;2024-02-15T04:39:15;102065.09;;;15.26;52.79
35419;BME280;21525;41.240;16.500;2024-02-15T04:41:55;102069.13;;;15.58;52.08
35419;BME280;21525;41.240;16.500;2024-02-15T04:44:21;102060.47;;;15.45;51.96
35419;BME280;21525;41.240;16.500;2024-02-15T04:46:48;102062.09;;;14.75;52.71
35419;BME280;21525;41.240;16.500;2024-02-15T04:49:15;102064.09;;;15.35;52.65
35419;BME280;21525;41.240;16.500;2024-02-15T04:51:41;102056.41;;;15.21;52.80
35419;BME280;21525;41.240;16.500;2024-02-15T04:54:07;102057.78;;;15.53;52.17
35419;BME280;21525;41.240;16.500;2024-02-15T04:56:34;102061.19;;;14.79;53.32
35419;BME280;21525;41.240;16.500;2024-02-15T04:59:03;102058.66;;;15.53;52.02
35419;BME280;21525;41.240;16.500;2024-02-15T05:01:29;102065.84;;;15.33;52.04
35419;BME280;21525;41.240;16.500;2024-02-15T05:03:58;102063.44;;;15.16;52.97
35419;BME280;21525;41.240;16.500;2024-02-15T05:06:24;102064.16;;;15.29;51.98
35419;BME280;21525;41.240;16.500;2024-02-15T05:08:51;102058.63;;;15.58;51.54
35419;BME280;21525;41.240;16.500;2024-02-15T05:11:17;102058.16;;;15.21;52.26
35419;BME280;21525;41.240;16.500;2024-02-15T05:13:48;102067.59;;;15.34;51.74
35419;BME280;21525;41.240;16.500;2024-02-15T05:16:16;102054.97;;;15.69;50.91
35419;BME280;21525;41.240;16.500;2024-02-15T05:18:42;102060.59;;;15.34;51.66
35419;BME280;21525;41.240;16.500;2024-02-15T05:21:08;102054.91;;;15.74;50.77
35419;BME280;21525;41.240;16.500;2024-02-15T05:23:35;102057.56;;;14.94;51.88
35419;BME280;21525;41.240;16.500;2024-02-15T05:26:02;102058.66;;;15.52;51.13
35419;BME280;21525;41.240;16.500;2024-02-15T05:28:29;102056.28;;;15.30;51.06
35419;BME280;21525;41.240;16.500;2024-02-15T05:31:15;102063.34;;;15.25;51.17
35419;BME280;21525;41.240;16.500;2024-02-15T05:33:49;102062.91;;;15.62;51.46
35419;BME280;21525;41.240;16.500;2024-02-15T05:36:17;102054.16;;;15.63;51.00
35419;BME280;21525;41.240;16.500;2024-02-15T05:38:47;102055.47;;;15.25;51.07
35419;BME280;21525;41.240;16.500;2024-02-15T05:41:13;102059.47;;;14.77;52.49
35419;BME280;21525;41.240;16.500;2024-02-15T05:43:40;102058.63;;;15.55;50.97
35419;BME280;21525;41.240;16.500;2024-02-15T05:46:10;102053.25;;;15.65;50.54
35419;BME280;21525;41.240;16.500;2024-02-15T05:48:36;102064.28;;;15.18;50.83
35419;BME280;21525;41.240;16.500;2024-02-15T05:51:04;102063.69;;;15.70;50.52
35419;BME280;21525;41.240;16.500;2024-02-15T05:53:30;102064.69;;;14.77;52.44
35419;BME280;21525;41.240;16.500;2024-02-15T05:55:56;102075.66;;;15.17;51.43
35419;BME280;21525;41.240;16.500;2024-02-15T05:58:25;102067.84;;;15.11;52.17
35419;BME280;21525;41.240;16.500;2024-02-15T06:00:51;102074.66;;;15.99;50.37
35419;BME280;21525;41.240;16.500;2024-02-15T06:03:19;102071.84;;;15.45;52.56
35419;BME280;21525;41.240;16.500;2024-02-15T06:05:48;102069.03;;;15.62;52.40
35419;BME280;21525;41.240;16.500;2024-02-15T06:08:14;102077.75;;;15.64;51.11
35419;BME280;21525;41.240;16.500;2024-02-15T06:10:40;102065.22;;;15.89;55.79
35419;BME280;21525;41.240;16.500;2024-02-15T06:13:06;102077.72;;;16.29;51.16
35419;BME280;21525;41.240;16.500;2024-02-15T06:15:35;102073.91;;;16.51;51.04
35419;BME280;21525;41.240;16.500;2024-02-15T06:18:02;102082.63;;;16.53;52.11
35419;BME280;21525;41.240;16.500;2024-02-15T06:20:34;102087.09;;;16.99;50.02
35419;BME280;21525;41.240;16.500;2024-02-15T06:23:01;102090.38;;;16.59;49.82
35419;BME280;21525;41.240;16.500;2024-02-15T06:25:31;102083.00;;;16.84;48.88
35419;BME280;21525;41.240;16.500;2024-02-15T06:27:57;102082.47;;;17.13;48.22
35419;BME280;21525;41.240;16.500;2024-02-15T06:30:30;102090.69;;;17.41;48.74
35419;BME280;21525;41.240;16.500;2024-02-15T06:33:15;102079.63;;;20.34;51.00
35419;BME280;21525;41.240;16.500;2024-02-15T06:36:04;102085.72;;;22.32;40.26
35419;BME280;21525;41.240;16.500;2024-02-15T06:38:48;102074.81;;;24.71;37.16
35419;BME280;21525;41.240;16.500;2024-02-15T06:41:37;102067.06;;;26.46;34.42
35419;BME280;21525;41.240;16.500;2024-02-15T06:44:03;102074.66;;;24.74;35.07
35419;BME280;21525;41.240;16.500;2024-02-15T06:46:29;102081.06;;;25.05;37.57
35419;BME280;21525;41.240;16.500;2024-02-15T06:48:54;102077.19;;;27.43;33.74
35419;BME280;21525;41.240;16.500;2024-02-15T06:51:20;102085.69;;;26.32;33.58
35419;BME280;21525;41.240;16.500;2024-02-15T06:53:46;102081.63;;;27.00;33.31
35419;BME280;21525;41.240;16.500;2024-02-15T06:56:12;102077.06;;;29.21;31.63
35419;BME280;21525;41.240;16.500;2024-02-15T06:58:39;102077.13;;;28.41;31.23
35419;BME280;21525;41.240;16.500;2024-02-15T07:01:08;102084.38;;;28.13;30.93
35419;BME280;21525;41.240;16.500;2024-02-15T07:03:34;102082.28;;;29.60;30.23
35419;BME280;21525;41.240;16.500;2024-02-15T07:05:59;102082.94;;;29.38;29.84
35419;BME280;21525;41.240;16.500;2024-02-15T07:08:25;102086.97;;;29.69;29.72
35419;BME280;21525;41.240;16.500;2024-02-15T07:10:52;102086.78;;;30.09;29.40
35419;BME280;21525;41.240;16.500;2024-02-15T07:13:19;102074.72;;;31.98;27.57
35419;BME280;21525;41.240;16.500;2024-02-15T07:15:45;102082.31;;;31.93;27.83
35419;BME280;21525;41.240;16.500;2024-02-15T07:18:12;102080.50;;;31.37;28.05
35419;BME280;21525;41.240;16.500;2024-02-15T07:20:42;102083.31;;;30.20;29.40
35419;BME280;21525;41.240;16.500;2024-02-15T07:23:08;102086.25;;;29.91;29.46
35419;BME280;21525;41.240;16.500;2024-02-15T07:25:34;102078.94;;;31.68;27.59
35419;BME280;21525;41.240;16.500;2024-02-15T07:27:59;102093.13;;;29.95;29.62
35419;BME280;21525;41.240;16.500;2024-02-15T07:30:25;102079.97;;;31.10;28.42
35419;BME280;21525;41.240;16.500;2024-02-15T07:32:51;102071.81;;;32.33;27.85
35419;BME280;21525;41.240;16.500;2024-02-15T07:35:18;102080.00;;;31.55;27.87
35419;BME280;21525;41.240;16.500;2024-02-15T07:37:54;102075.53;;;30.98;28.32
35419;BME280;21525;41.240;16.500;2024-02-15T07:40:21;102065.44;;;32.34;27.70
35419;BME280;21525;41.240;16.500;2024-02-15T07:42:48;102067.16;;;31.58;28.22
35419;BME280;21525;41.240;16.500;2024-02-15T07:45:15;102070.22;;;31.65;28.38
35419;BME280;21525;41.240;16.500;2024-02-15T07:47:40;102074.28;;;31.82;28.13
35419;BME280;21525;41.240;16.500;2024-02-15T07:50:06;102075.84;;;31.28;28.11
35419;BME280;21525;41.240;16.500;2024-02-15T07:52:35;102071.56;;;32.36;27.69
35419;BME280;21525;41.240;16.500;2024-02-15T07:55:01;102079.47;;;32.69;27.74
35419;BME280;21525;41.240;16.500;2024-02-15T07:57:34;102075.69;;;32.93;27.20
35419;BME280;21525;41.240;16.500;2024-02-15T08:00:00;102071.63;;;32.78;27.63
35419;BME280;21525;41.240;16.500;2024-02-15T08:02:26;102077.69;;;32.38;27.50
35419;BME280;21525;41.240;16.500;2024-02-15T08:04:54;102076.78;;;32.49;27.91
35419;BME280;21525;41.240;16.500;2024-02-15T08:07:20;102077.19;;;32.33;27.83
35419;BME280;21525;41.240;16.500;2024-02-15T08:09:46;102073.53;;;32.34;27.79
35419;BME280;21525;41.240;16.500;2024-02-15T08:12:16;102082.00;;;32.50;27.24
35419;BME280;21525;41.240;16.500;2024-02-15T08:14:44;102078.81;;;32.56;27.49
35419;BME280;21525;41.240;16.500;2024-02-15T08:17:10;102079.78;;;34.38;26.39
35419;BME280;21525;41.240;16.500;2024-02-15T08:19:39;102078.84;;;32.77;27.18
35419;BME280;21525;41.240;16.500;2024-02-15T08:22:07;102084.50;;;31.99;27.63
35419;BME280;21525;41.240;16.500;2024-02-15T08:24:33;102078.88;;;32.66;27.32
35419;BME280;21525;41.240;16.500;2024-02-15T08:26:59;102093.69;;;31.85;27.78
35419;BME280;21525;41.240;16.500;2024-02-15T08:29:25;102087.75;;;33.50;26.96
35419;BME280;21525;41.240;16.500;2024-02-15T08:31:51;102093.69;;;33.13;27.50
35419;BME280;21525;41.240;16.500;2024-02-15T08:34:17;102086.38;;;32.19;27.77
35419;BME280;21525;41.240;16.500;2024-02-15T08:36:44;102091.06;;;31.05;29.12
35419;BME280;21525;41.240;16.500;2024-02-15T08:39:10;102091.25;;;31.60;28.77
35419;BME280;21525;41.240;16.500;2024-02-15T08:41:38;102096.91;;;30.53;29.35
35419;BME280;21525;41.240;16.500;2024-02-15T08:44:04;102093.56;;;29.15;30.96
35419;BME280;21525;41.240;16.500;2024-02-15T08:46:34;102098.25;;;29.11;31.26
35419;BME280;21525;41.240;16.500;2024-02-15T08:49:01;102097.59;;;28.82;31.83
35419;BME280;21525;41.240;16.500;2024-02-15T08:51:31;102096.97;;;29.29;31.52
35419;BME280;21525;41.240;16.500;2024-02-15T08:53:58;102105.84;;;28.52;31.99
35419;BME280;21525;41.240;16.500;2024-02-15T08:56:25;102102.09;;;27.72;33.03
35419;BME280;21525;41.240;16.500;2024-02-15T08:58:51;102110.00;;;27.31;33.38
35419;BME280;21525;41.240;16.500;2024-02-15T09:01:17;102106.44;;;27.61;33.04
35419;BME280;21525;41.240;16.500;2024-02-15T09:03:42;102108.00;;;27.49;33.61
35419;BME280;21525;41.240;16.500;2024-02-15T09:06:09;102108.41;;;27.57;33.44
35419;BME280;21525;41.240;16.500;2024-02-15T09:08:34;102108.97;;;27.48;33.14
35419;BME280;21525;41.240;16.500;2024-02-15T09:11:00;102102.09;;;27.72;33.07
35419;BME280;21525;41.240;16.500;2024-02-15T09:13:26;102107.63;;;27.84;32.93
35419;BME280;21525;41.240;16.500;2024-02-15T09:15:52;102104.50;;;27.63;33.18
35419;BME280;21525;41.240;16.500;2024-02-15T09:18:17;102098.00;;;27.81;33.34
35419;BME280;21525;41.240;16.500;2024-02-15T09:20:43;102100.31;;;27.59;33.36
35419;BME280;21525;41.240;16.500;2024-02-15T09:23:13;102101.91;;;27.19;33.48
35419;BME280;21525;41.240;16.500;2024-02-15T09:25:41;102096.38;;;27.64;32.81
35419;BME280;21525;41.240;16.500;2024-02-15T09:28:10;102098.94;;;27.37;33.60
35419;BME280;21525;41.240;16.500;2024-02-15T09:30:36;102100.69;;;27.67;32.84
35419;BME280;21525;41.240;16.500;2024-02-15T09:33:02;102106.84;;;27.96;32.66
35419;BME280;21525;41.240;16.500;2024-02-15T09:35:31;102097.31;;;27.21;33.92
35419;BME280;21525;41.240;16.500;2024-02-15T09:37:57;102102.97;;;27.73;32.96
35419;BME280;21525;41.240;16.500;2024-02-15T09:40:23;102103.69;;;28.03;32.31
35419;BME280;21525;41.240;16.500;2024-02-15T09:42:54;102109.16;;;27.73;32.62
35419;BME280;21525;41.240;16.500;2024-02-15T09:45:20;102101.25;;;27.86;32.29
35419;BME280;21525;41.240;16.500;2024-02-15T09:47:47;102099.31;;;27.46;33.00
35419;BME280;21525;41.240;16.500;2024-02-15T09:50:17;102096.97;;;28.25;32.06
35419;BME280;21525;41.240;16.500;2024-02-15T09:52:50;102096.47;;;27.77;32.54
35419;BME280;21525;41.240;16.500;2024-02-15T09:55:28;102101.91;;;27.75;32.45
35419;BME280;21525;41.240;16.500;2024-02-15T09:57:54;102110.59;;;27.79;32.44
35419;BME280;21525;41.240;16.500;2024-02-15T10:00:20;102111.09;;;27.71;32.47
35419;BME280;21525;41.240;16.500;2024-02-15T10:02:53;102106.59;;;27.86;32.40
35419;BME280;21525;41.240;16.500;2024-02-15T10:05:19;102104.72;;;28.15;32.17
35419;BME280;21525;41.240;16.500;2024-02-15T10:07:46;102104.41;;;27.64;32.38
35419;BME280;21525;41.240;16.500;2024-02-15T10:12:50;102101.44;;;27.69;32.13
35419;BME280;21525;41.240;16.500;2024-02-15T10:15:35;102092.66;;;27.81;32.11
35419;BME280;21525;41.240;16.500;2024-02-15T10:20:30;102097.53;;;28.16;31.78
35419;BME280;21525;41.240;16.500;2024-02-15T10:25:28;102092.84;;;28.19;31.79
35419;BME280;21525;41.240;16.500;2024-02-15T10:28:04;102082.19;;;28.05;32.16
35419;BME280;21525;41.240;16.500;2024-02-15T10:30:34;102092.84;;;27.78;32.59
35419;BME280;21525;41.240;16.500;2024-02-15T10:33:01;102095.16;;;28.11;32.51
35419;BME280;21525;41.240;16.500;2024-02-15T10:35:27;102099.53;;;27.71;32.19
35419;BME280;21525;41.240;16.500;2024-02-15T10:38:05;102096.69;;;28.01;32.13
35419;BME280;21525;41.240;16.500;2024-02-15T10:40:33;102095.41;;;27.94;32.22
35419;BME280;21525;41.240;16.500;2024-02-15T10:42:59;102089.50;;;27.89;31.97
35419;BME280;21525;41.240;16.500;2024-02-15T10:45:30;102085.41;;;28.10;32.25
35419;BME280;21525;41.240;16.500;2024-02-15T10:47:56;102081.78;;;28.25;32.02
35419;BME280;21525;41.240;16.500;2024-02-15T10:50:25;102086.16;;;27.42;33.09
35419;BME280;21525;41.240;16.500;2024-02-15T10:52:55;102087.88;;;27.58;33.36
35419;BME280;21525;41.240;16.500;2024-02-15T10:56:34;102082.63;;;27.42;33.57
35419;BME280;21525;41.240;16.500;2024-02-15T10:58:46;102078.19;;;27.98;32.32
35419;BME280;21525;41.240;16.500;2024-02-15T11:01:17;102081.06;;;27.95;33.08
35419;BME280;21525;41.240;16.500;2024-02-15T11:03:57;102078.19;;;27.98;32.54
35419;BME280;21525;41.240;16.500;2024-02-15T11:06:28;102073.84;;;27.83;32.55
35419;BME280;21525;41.240;16.500;2024-02-15T11:08:56;102080.06;;;27.55;32.95
35419;BME280;21525;41.240;16.500;2024-02-15T11:11:22;102071.84;;;27.43;32.95
35419;BME280;21525;41.240;16.500;2024-02-15T11:13:48;102071.47;;;27.50;33.25
35419;BME280;21525;41.240;16.500;2024-02-15T11:16:43;102072.81;;;27.57;33.15
35419;BME280;21525;41.240;16.500;2024-02-15T11:19:09;102065.59;;;27.59;33.50
35419;BME280;21525;41.240;16.500;2024-02-15T11:21:55;102060.44;;;26.97;34.20
35419;BME280;21525;41.240;16.500;2024-02-15T11:24:28;102056.56;;;27.31;34.07
35419;BME280;21525;41.240;16.500;2024-02-15T11:27:04;102052.47;;;27.12;34.53
35419;BME280;21525;41.240;16.500;2024-02-15T11:29:53;102048.00;;;27.26;34.03
35419;BME280;21525;41.240;16.500;2024-02-15T11:32:43;102047.03;;;27.41;33.34
35419;BME280;21525;41.240;16.500;2024-02-15T11:35:10;102041.94;;;27.80;33.18
35419;BME280;21525;41.240;16.500;2024-02-15T11:42:45;102043.25;;;26.43;35.30
35419;BME280;21525;41.240;16.500;2024-02-15T11:45:12;102036.25;;;26.70;35.13
35419;BME280;21525;41.240;16.500;2024-02-15T11:47:39;102039.22;;;26.96;34.67
35419;BME280;21525;41.240;16.500;2024-02-15T11:50:09;102032.94;;;26.81;34.97
35419;BME280;21525;41.240;16.500;2024-02-15T11:52:40;102023.72;;;26.87;35.21
35419;BME280;21525;41.240;16.500;2024-02-15T11:55:08;102035.09;;;26.15;36.55
35419;BME280;21525;41.240;16.500;2024-02-15T11:57:42;102025.22;;;26.01;37.40
35419;BME280;21525;41.240;16.500;2024-02-15T12:00:25;102027.44;;;26.24;37.22
35419;BME280;21525;41.240;16.500;2024-02-15T12:03:10;102023.56;;;26.14;37.16
35419;BME280;21525;41.240;16.500;2024-02-15T12:05:55;102008.59;;;26.57;36.23
35419;BME280;21525;41.240;16.500;2024-02-15T12:08:39;102012.13;;;26.58;35.43
35419;BME280;21525;41.240;16.500;2024-02-15T12:11:27;102009.75;;;26.67;35.39
35419;BME280;21525;41.240;16.500;2024-02-15T12:14:12;102006.50;;;26.32;35.90
35419;BME280;21525;41.240;16.500;2024-02-15T12:19:44;102010.16;;;26.31;35.78
35419;BME280;21525;41.240;16.500;2024-02-15T12:22:10;102006.50;;;26.32;35.64
35419;BME280;21525;41.240;16.500;2024-02-15T12:24:38;102000.28;;;26.02;35.96
35419;BME280;21525;41.240;16.500;2024-02-15T12:27:04;102003.44;;;26.24;36.22
35419;BME280;21525;41.240;16.500;2024-02-15T12:29:32;102003.44;;;26.08;36.44
35419;BME280;21525;41.240;16.500;2024-02-15T12:32:00;101993.78;;;26.22;36.44
35419;BME280;21525;41.240;16.500;2024-02-15T12:34:26;101999.38;;;26.33;36.33
35419;BME280;21525;41.240;16.500;2024-02-15T12:37:04;101990.59;;;26.61;38.14
35419;BME280;21525;41.240;16.500;2024-02-15T12:39:31;101989.00;;;26.13;37.69
35419;BME280;21525;41.240;16.500;2024-02-15T12:41:57;101982.63;;;26.15;38.18
35419;BME280;21525;41.240;16.500;2024-02-15T12:44:23;101992.13;;;25.89;38.32
35419;BME280;21525;41.240;16.500;2024-02-15T12:46:56;101989.13;;;25.95;38.23
35419;BME280;21525;41.240;16.500;2024-02-15T12:51:52;101986.75;;;26.21;38.28
35419;BME280;21525;41.240;16.500;2024-02-15T12:54:22;101992.28;;;26.02;37.43
35419;BME280;21525;41.240;16.500;2024-02-15T12:56:49;101993.69;;;25.77;37.31
35419;BME280;21525;41.240;16.500;2024-02-15T12:59:18;101981.69;;;26.16;37.15
35419;BME280;21525;41.240;16.500;2024-02-15T13:01:47;101987.66;;;25.74;37.35
35419;BME280;21525;41.240;16.500;2024-02-15T13:04:23;101982.63;;;25.36;37.51
35419;BME280;21525;41.240;16.500;2024-02-15T13:06:51;101975.25;;;25.41;37.67